Terminal Aerodrome Forecast
Issued by NWS

Home | Current Version | Previous Version | Text Only | Print | Product List | Glossary Off
Versions: 1 2 3 4 5 6 7 8 9 10 11 12 13

000
FTUS43 KIWX 281700
TAFSBN
TAF
KSBN 281721Z 2818/2918 33004KT P6SM FEW050 SCT250
     FM291000 00000KT 5SM BR SKC
     FM291400 30004KT P6SM SKC=

USA.gov is the U.S. government's official web portal to all federal, state and local government web resources and services.